Time;durP1;ratioP1;P1;durP2;ratioP2;P2;SDS_P1;SDS_P2;PMS_P1;PMS_P2;Temp;Humidity;BMP_temperature;BMP_pressure;BME280_temperature;BME280_humidity;BME280_pressure;Samples;Min_cycle;Max_cycle;Signal;HPM_P1;HPM_P2
2024/04/16 00:01:05;;;;;;;18.23;3.83;;;;;;;;;;5381935;26;25087;-75
2024/04/16 00:03:32;;;;;;;10.35;2.42;;;;;;;;;;5359869;26;25040;-76
2024/04/16 00:05:59;;;;;;;16.42;3.10;;;;;;;;;;5368667;26;25050;-77
2024/04/16 00:08:25;;;;;;;15.85;2.80;;;;;;;;;;5367601;26;25076;-75
2024/04/16 00:10:51;;;;;;;12.55;3.42;;;;;;;;;;5376896;26;25129;-77
2024/04/16 00:13:17;;;;;;;13.43;3.10;;;;;;;;;;5347655;26;25050;-76
2024/04/16 00:15:43;;;;;;;11.13;3.55;;;;;;;;;;5342071;26;25047;-74
2024/04/16 00:18:09;;;;;;;18.92;3.70;;;;;;;;;;5349216;26;25069;-74
2024/04/16 00:20:35;;;;;;;20.08;4.28;;;;;;;;;;5361570;26;25037;-73
2024/04/16 00:23:01;;;;;;;13.38;2.80;;;;;;;;;;5375118;26;25070;-74
2024/04/16 00:25:27;;;;;;;13.63;3.42;;;;;;;;;;5405198;21;25076;-74
2024/04/16 00:27:53;;;;;;;14.02;2.72;;;;;;;;;;5374665;26;25048;-76
2024/04/16 00:30:18;;;;;;;19.05;2.85;;;;;;;;;;5389014;26;25040;-75
2024/04/16 00:32:44;;;;;;;13.15;2.95;;;;;;;;;;5384161;26;25049;-76
2024/04/16 00:35:11;;;;;;;13.95;3.40;;;;;;;;;;5364371;26;25055;-74
2024/04/16 00:37:37;;;;;;;9.57;1.98;;;;;;;;;;5375117;26;25063;-76
2024/04/16 00:40:03;;;;;;;8.32;1.90;;;;;;;;;;5352709;26;25058;-76
2024/04/16 00:42:29;;;;;;;10.88;2.70;;;;;;;;;;5380694;26;25039;-74
2024/04/16 00:44:55;;;;;;;9.50;2.22;;;;;;;;;;5380843;26;25050;-76
2024/04/16 00:47:21;;;;;;;5.32;2.20;;;;;;;;;;5395101;26;25058;-74
2024/04/16 00:49:48;;;;;;;15.43;4.15;;;;;;;;;;5413192;26;25052;-75
2024/04/16 00:52:14;;;;;;;11.18;2.25;;;;;;;;;;5410926;26;25060;-74
2024/04/16 00:54:41;;;;;;;11.98;3.00;;;;;;;;;;5418358;26;25112;-75
2024/04/16 00:57:07;;;;;;;8.45;2.50;;;;;;;;;;5408210;26;25035;-75
2024/04/16 00:59:34;;;;;;;12.15;2.58;;;;;;;;;;5406905;26;25063;-76
2024/04/16 01:02:00;;;;;;;16.05;3.20;;;;;;;;;;5400042;26;25105;-74
2024/04/16 01:04:26;;;;;;;10.10;2.25;;;;;;;;;;5407649;26;25118;-75
2024/04/16 01:06:53;;;;;;;8.18;2.63;;;;;;;;;;5407221;26;25048;-77
2024/04/16 01:09:19;;;;;;;9.68;2.30;;;;;;;;;;5404964;26;25086;-74
2024/04/16 01:11:46;;;;;;;11.93;2.67;;;;;;;;;;5411923;26;25037;-74
2024/04/16 01:14:12;;;;;;;5.78;2.30;;;;;;;;;;5406669;26;25048;-75
2024/04/16 01:16:39;;;;;;;13.23;2.75;;;;;;;;;;5434604;26;25050;-74
2024/04/16 01:19:06;;;;;;;8.48;2.20;;;;;;;;;;5415586;26;25049;-74
2024/04/16 01:21:32;;;;;;;8.57;2.08;;;;;;;;;;5407227;26;25070;-75
2024/04/16 01:23:58;;;;;;;10.52;3.05;;;;;;;;;;5435607;26;25045;-74
2024/04/16 01:26:24;;;;;;;10.15;2.75;;;;;;;;;;5459913;26;25122;-74
2024/04/16 01:28:50;;;;;;;16.13;3.50;;;;;;;;;;5435696;26;25061;-76
2024/04/16 01:31:16;;;;;;;9.18;2.78;;;;;;;;;;5443943;26;25046;-76
2024/04/16 01:33:42;;;;;;;11.48;3.05;;;;;;;;;;5443094;26;25065;-78
2024/04/16 01:36:08;;;;;;;16.83;3.58;;;;;;;;;;5451453;26;25060;-77
2024/04/16 01:38:34;;;;;;;13.48;3.35;;;;;;;;;;5449959;26;25106;-75
2024/04/16 01:41:02;;;;;;;13.93;3.90;;;;;;;;;;5453851;26;25044;-75
2024/04/16 01:43:28;;;;;;;16.45;3.50;;;;;;;;;;5460816;26;25067;-78
2024/04/16 01:45:54;;;;;;;10.65;3.88;;;;;;;;;;5446312;26;25101;-74
2024/04/16 01:48:20;;;;;;;24.92;4.53;;;;;;;;;;5453756;26;25059;-74
2024/04/16 01:50:46;;;;;;;13.18;2.92;;;;;;;;;;5440868;26;26179;-75
2024/04/16 01:53:12;;;;;;;11.13;3.22;;;;;;;;;;5452700;26;25058;-73
2024/04/16 01:55:38;;;;;;;11.35;3.13;;;;;;;;;;5447383;26;25034;-76
2024/04/16 01:58:05;;;;;;;8.35;2.42;;;;;;;;;;5407972;26;25046;-76
2024/04/16 02:00:31;;;;;;;7.45;2.00;;;;;;;;;;5438285;26;25051;-75
2024/04/16 02:03:02;;;;;;;7.13;2.17;;;;;;;;;;5448869;26;25093;-75
2024/04/16 02:05:28;;;;;;;7.15;2.00;;;;;;;;;;5421729;26;25381;-74
2024/04/16 02:07:54;;;;;;;6.00;1.98;;;;;;;;;;5454027;26;25068;-74
2024/04/16 02:10:20;;;;;;;5.75;2.08;;;;;;;;;;5461858;26;25064;-75
2024/04/16 02:12:46;;;;;;;10.13;1.90;;;;;;;;;;5455195;26;25043;-74
2024/04/16 02:15:12;;;;;;;8.52;1.85;;;;;;;;;;5457428;26;25048;-75
2024/04/16 02:17:38;;;;;;;7.72;1.92;;;;;;;;;;5468564;26;25053;-75
2024/04/16 02:20:05;;;;;;;11.82;2.53;;;;;;;;;;5454427;26;25051;-74
2024/04/16 02:22:31;;;;;;;5.28;1.90;;;;;;;;;;5445103;26;25041;-75
2024/04/16 02:24:57;;;;;;;4.28;1.90;;;;;;;;;;5458546;26;25063;-74
2024/04/16 02:27:23;;;;;;;7.20;2.05;;;;;;;;;;5458516;26;25051;-75
2024/04/16 02:29:49;;;;;;;7.57;1.75;;;;;;;;;;5442529;26;25033;-75
2024/04/16 02:32:15;;;;;;;12.02;2.33;;;;;;;;;;5439751;26;25044;-74
2024/04/16 02:34:41;;;;;;;8.65;2.20;;;;;;;;;;5410977;26;25034;-74
2024/04/16 02:37:07;;;;;;;5.47;1.80;;;;;;;;;;5419466;26;25053;-74
2024/04/16 02:39:33;;;;;;;7.93;2.88;;;;;;;;;;5456347;26;25044;-76
2024/04/16 02:41:59;;;;;;;8.45;2.42;;;;;;;;;;5412106;26;25045;-76
2024/04/16 02:44:25;;;;;;;9.48;3.03;;;;;;;;;;5416956;26;25028;-76
2024/04/16 02:46:51;;;;;;;11.27;3.05;;;;;;;;;;5462966;26;25053;-73
2024/04/16 02:49:17;;;;;;;13.60;3.55;;;;;;;;;;5455812;26;25027;-77
2024/04/16 02:51:43;;;;;;;13.13;3.13;;;;;;;;;;5454309;26;25059;-76
2024/04/16 02:54:09;;;;;;;11.02;2.80;;;;;;;;;;5441695;26;25056;-74
2024/04/16 02:56:36;;;;;;;19.40;3.83;;;;;;;;;;5459619;26;25112;-74
2024/04/16 02:59:02;;;;;;;12.85;3.45;;;;;;;;;;5420338;26;25055;-76
2024/04/16 03:01:28;;;;;;;19.88;3.53;;;;;;;;;;5449846;26;25050;-74
2024/04/16 03:03:55;;;;;;;12.35;3.20;;;;;;;;;;5446669;26;25044;-78
2024/04/16 03:06:21;;;;;;;16.00;3.42;;;;;;;;;;5388459;26;25047;-77
2024/04/16 03:08:47;;;;;;;9.32;3.08;;;;;;;;;;5448023;26;25058;-75
2024/04/16 03:11:13;;;;;;;10.75;3.08;;;;;;;;;;5463529;26;25066;-76
2024/04/16 03:13:40;;;;;;;13.20;3.40;;;;;;;;;;5396698;26;25047;-77
2024/04/16 03:16:06;;;;;;;15.18;3.80;;;;;;;;;;5412999;26;25042;-75
2024/04/16 03:18:33;;;;;;;14.32;4.47;;;;;;;;;;5440807;26;25039;-74
2024/04/16 03:21:00;;;;;;;13.68;4.03;;;;;;;;;;5381384;26;25118;-76
2024/04/16 03:23:26;;;;;;;16.55;4.63;;;;;;;;;;5449360;26;25095;-76
2024/04/16 03:25:52;;;;;;;18.48;4.85;;;;;;;;;;5393542;26;25076;-77
2024/04/16 03:28:18;;;;;;;15.13;3.80;;;;;;;;;;5426980;26;25038;-77
2024/04/16 03:30:47;;;;;;;15.27;3.63;;;;;;;;;;5447105;26;25051;-74
2024/04/16 03:33:13;;;;;;;13.07;3.58;;;;;;;;;;5425119;26;25043;-77
2024/04/16 03:35:39;;;;;;;20.48;4.47;;;;;;;;;;5459773;26;25056;-76
2024/04/16 03:38:05;;;;;;;17.60;4.30;;;;;;;;;;5448656;26;25043;-77
2024/04/16 03:40:31;;;;;;;16.65;3.90;;;;;;;;;;5418432;26;25063;-77
2024/04/16 03:42:57;;;;;;;27.85;5.82;;;;;;;;;;5464086;26;25037;-76
2024/04/16 03:45:23;;;;;;;17.17;3.90;;;;;;;;;;5422617;26;25052;-77
2024/04/16 03:47:49;;;;;;;20.98;3.85;;;;;;;;;;5461086;26;25141;-77
2024/04/16 03:50:15;;;;;;;21.48;5.18;;;;;;;;;;5421786;26;25034;-74
2024/04/16 03:52:41;;;;;;;9.40;2.83;;;;;;;;;;5433261;26;25065;-74
2024/04/16 03:55:07;;;;;;;8.80;3.42;;;;;;;;;;5460698;26;25050;-76
2024/04/16 03:57:33;;;;;;;16.45;3.08;;;;;;;;;;5423698;26;25149;-75
2024/04/16 04:02:44;;;;;;;9.18;3.33;;;;;;;;;;5465994;26;25035;-75
2024/04/16 04:05:10;;;;;;;13.30;3.42;;;;;;;;;;5447930;26;25098;-75
2024/04/16 04:07:36;;;;;;;12.95;3.50;;;;;;;;;;5441838;26;25049;-80
2024/04/16 04:10:02;;;;;;;7.35;2.95;;;;;;;;;;5440722;26;25067;-74
2024/04/16 04:12:28;;;;;;;8.88;2.60;;;;;;;;;;5446033;26;25052;-74
2024/04/16 04:14:54;;;;;;;8.48;3.05;;;;;;;;;;5438593;26;25170;-73
2024/04/16 04:17:20;;;;;;;6.63;2.88;;;;;;;;;;5453029;26;25109;-73
2024/04/16 04:19:46;;;;;;;5.75;2.78;;;;;;;;;;5449638;26;25039;-73
2024/04/16 04:22:12;;;;;;;7.72;2.83;;;;;;;;;;5444031;26;25069;-76
2024/04/16 04:24:38;;;;;;;10.55;2.95;;;;;;;;;;5446803;26;25143;-74
2024/04/16 04:27:06;;;;;;;11.15;2.72;;;;;;;;;;5442759;26;25048;-73
2024/04/16 04:29:33;;;;;;;17.00;3.10;;;;;;;;;;5432003;26;25055;-72
2024/04/16 04:31:59;;;;;;;7.40;3.95;;;;;;;;;;5458091;26;25080;-73
2024/04/16 04:34:26;;;;;;;5.72;2.90;;;;;;;;;;5458708;26;25049;-71
2024/04/16 04:36:52;;;;;;;10.00;3.50;;;;;;;;;;5443108;26;25047;-76
2024/04/16 04:39:18;;;;;;;8.60;3.35;;;;;;;;;;5451077;26;25044;-76
2024/04/16 04:41:44;;;;;;;9.90;3.25;;;;;;;;;;5442952;26;25045;-75
2024/04/16 04:44:10;;;;;;;12.70;3.22;;;;;;;;;;5444945;26;25047;-75
2024/04/16 04:46:36;;;;;;;12.95;3.53;;;;;;;;;;5423848;26;25039;-74
2024/04/16 04:49:03;;;;;;;12.68;3.28;;;;;;;;;;5447557;26;25059;-76
2024/04/16 04:51:29;;;;;;;11.90;2.72;;;;;;;;;;5434008;26;25098;-78
2024/04/16 04:53:55;;;;;;;14.18;3.08;;;;;;;;;;5433545;26;25034;-77
2024/04/16 04:56:21;;;;;;;13.90;3.20;;;;;;;;;;5454963;26;25079;-76
2024/04/16 04:58:47;;;;;;;10.80;3.00;;;;;;;;;;5423426;26;25059;-78
2024/04/16 05:01:13;;;;;;;14.27;3.30;;;;;;;;;;5463681;26;25068;-73
2024/04/16 05:03:39;;;;;;;20.48;3.53;;;;;;;;;;5437341;26;25111;-76
2024/04/16 05:06:05;;;;;;;13.25;3.15;;;;;;;;;;5436925;26;25027;-74
2024/04/16 05:08:32;;;;;;;11.40;3.00;;;;;;;;;;5466706;26;25068;-76
2024/04/16 05:10:58;;;;;;;13.20;2.97;;;;;;;;;;5455273;26;25070;-77
2024/04/16 05:13:26;;;;;;;13.02;2.70;;;;;;;;;;5423935;26;25059;-76
2024/04/16 05:15:52;;;;;;;10.55;3.20;;;;;;;;;;5457159;26;25067;-76
2024/04/16 05:18:19;;;;;;;17.42;3.80;;;;;;;;;;5444773;26;25035;-77
2024/04/16 05:20:48;;;;;;;17.02;4.65;;;;;;;;;;5426518;26;25036;-78
2024/04/16 05:23:14;;;;;;;20.25;4.50;;;;;;;;;;5425822;26;25050;-75
2024/04/16 05:25:40;;;;;;;22.80;5.63;;;;;;;;;;5453743;26;25062;-78
2024/04/16 05:28:06;;;;;;;22.23;5.00;;;;;;;;;;5462360;26;25046;-74
2024/04/16 05:30:33;;;;;;;22.83;5.70;;;;;;;;;;5425890;26;25063;-77
2024/04/16 05:32:59;;;;;;;23.25;6.72;;;;;;;;;;5417849;26;25042;-75
2024/04/16 05:35:25;;;;;;;21.02;5.40;;;;;;;;;;5428966;26;25108;-75
2024/04/16 05:37:51;;;;;;;30.60;7.18;;;;;;;;;;5449150;26;25062;-76
2024/04/16 05:40:17;;;;;;;27.35;6.38;;;;;;;;;;5431450;26;25042;-78
2024/04/16 05:42:44;;;;;;;22.30;6.22;;;;;;;;;;5457034;26;25062;-77
2024/04/16 05:45:10;;;;;;;33.55;6.35;;;;;;;;;;5464893;26;25050;-75
2024/04/16 05:47:36;;;;;;;24.10;6.57;;;;;;;;;;5426755;26;25060;-79
2024/04/16 05:50:02;;;;;;;24.02;6.28;;;;;;;;;;5459366;26;25046;-79
2024/04/16 05:52:28;;;;;;;22.73;5.45;;;;;;;;;;5427129;26;25051;-73
2024/04/16 05:54:54;;;;;;;23.05;6.03;;;;;;;;;;5411271;26;25043;-75
2024/04/16 05:57:20;;;;;;;24.85;6.70;;;;;;;;;;5459490;26;25100;-77
2024/04/16 05:59:46;;;;;;;13.27;6.18;;;;;;;;;;5419981;26;25048;-76
2024/04/16 06:02:12;;;;;;;17.58;4.50;;;;;;;;;;5419980;26;25085;-74
2024/04/16 06:04:39;;;;;;;26.08;6.22;;;;;;;;;;5433169;26;25110;-80
2024/04/16 06:07:05;;;;;;;22.65;6.15;;;;;;;;;;5436516;26;25048;-75
2024/04/16 06:09:31;;;;;;;31.38;6.25;;;;;;;;;;5423806;26;25115;-75
2024/04/16 06:11:57;;;;;;;24.63;5.80;;;;;;;;;;5418976;26;25066;-73
2024/04/16 06:14:23;;;;;;;20.77;5.57;;;;;;;;;;5416580;26;25059;-75
2024/04/16 06:16:49;;;;;;;25.10;4.80;;;;;;;;;;5418205;26;24072;-73
2024/04/16 06:19:15;;;;;;;24.17;5.35;;;;;;;;;;5475919;26;25047;-74
2024/04/16 06:21:41;;;;;;;16.50;4.40;;;;;;;;;;5462290;26;25053;-75
2024/04/16 06:24:07;;;;;;;17.80;4.13;;;;;;;;;;5470106;21;25051;-66
2024/04/16 06:26:33;;;;;;;23.33;5.40;;;;;;;;;;5369161;26;25055;-67
2024/04/16 06:29:00;;;;;;;20.70;4.95;;;;;;;;;;5318628;26;25047;-65
2024/04/16 06:31:26;;;;;;;19.67;4.63;;;;;;;;;;5347862;26;25063;-70
2024/04/16 06:33:52;;;;;;;19.15;5.40;;;;;;;;;;5347701;26;25034;-66
2024/04/16 06:36:18;;;;;;;26.35;5.15;;;;;;;;;;5355758;26;25090;-66
2024/04/16 06:38:44;;;;;;;22.60;6.10;;;;;;;;;;5345442;26;25163;-67
2024/04/16 06:41:10;;;;;;;20.77;5.75;;;;;;;;;;5346136;26;25054;-66
2024/04/16 06:43:36;;;;;;;15.48;5.07;;;;;;;;;;5352107;26;25052;-65
2024/04/16 06:46:03;;;;;;;21.58;4.80;;;;;;;;;;5345093;26;25051;-67
2024/04/16 06:48:30;;;;;;;32.00;6.68;;;;;;;;;;5356532;26;25087;-68
2024/04/16 06:50:56;;;;;;;30.63;7.70;;;;;;;;;;5348496;26;25055;-65
2024/04/16 06:53:23;;;;;;;20.77;6.00;;;;;;;;;;5357985;26;25048;-69
2024/04/16 06:55:59;;;;;;;19.23;6.95;;;;;;;;;;5335877;26;25056;-71
2024/04/16 06:58:25;;;;;;;19.10;4.63;;;;;;;;;;5339110;26;25060;-67
2024/04/16 07:00:51;;;;;;;8.85;3.58;;;;;;;;;;5346642;26;25055;-66
2024/04/16 07:03:17;;;;;;;10.95;3.53;;;;;;;;;;5343232;26;25132;-66
2024/04/16 07:05:42;;;;;;;10.27;3.63;;;;;;;;;;5348489;26;25052;-68
2024/04/16 07:08:09;;;;;;;16.73;4.40;;;;;;;;;;5334770;26;25041;-67
2024/04/16 07:10:35;;;;;;;11.35;3.60;;;;;;;;;;5345684;26;25051;-66
2024/04/16 07:13:04;;;;;;;14.45;5.32;;;;;;;;;;5352215;26;25101;-65
2024/04/16 07:15:30;;;;;;;25.52;5.00;;;;;;;;;;5347475;26;25046;-64
2024/04/16 07:17:57;;;;;;;26.40;5.10;;;;;;;;;;5345327;26;25048;-65
2024/04/16 07:20:23;;;;;;;18.05;5.03;;;;;;;;;;5352948;26;25118;-68
2024/04/16 07:22:49;;;;;;;15.80;5.07;;;;;;;;;;5353129;26;25052;-65
2024/04/16 07:25:15;;;;;;;17.67;4.50;;;;;;;;;;5345597;26;25057;-67
2024/04/16 07:27:41;;;;;;;12.27;4.40;;;;;;;;;;5352975;26;25067;-66
2024/04/16 07:30:07;;;;;;;16.75;4.47;;;;;;;;;;5346185;26;25053;-68
2024/04/16 07:32:33;;;;;;;12.13;3.83;;;;;;;;;;5353699;26;25107;-66
2024/04/16 07:34:59;;;;;;;16.48;4.25;;;;;;;;;;5344747;26;25036;-67
2024/04/16 07:37:25;;;;;;;18.33;4.75;;;;;;;;;;5355907;26;25046;-68
2024/04/16 07:39:51;;;;;;;11.25;3.33;;;;;;;;;;5355811;26;25055;-67
2024/04/16 07:42:17;;;;;;;13.80;3.65;;;;;;;;;;5331258;26;25030;-67
2024/04/16 07:44:45;;;;;;;20.60;4.07;;;;;;;;;;5346115;26;25081;-65
2024/04/16 07:47:11;;;;;;;21.17;4.22;;;;;;;;;;5354268;26;25065;-68
2024/04/16 07:49:37;;;;;;;14.68;3.50;;;;;;;;;;5349651;26;25060;-67
2024/04/16 07:52:03;;;;;;;19.08;4.00;;;;;;;;;;5342589;26;25047;-65
2024/04/16 07:54:29;;;;;;;19.10;4.25;;;;;;;;;;5354751;26;25057;-66
2024/04/16 07:56:55;;;;;;;17.05;3.40;;;;;;;;;;5343918;26;25046;-66
2024/04/16 07:59:22;;;;;;;18.05;4.03;;;;;;;;;;5349754;26;25058;-67
2024/04/16 08:01:48;;;;;;;17.40;4.22;;;;;;;;;;5343145;26;25040;-66
2024/04/16 08:04:14;;;;;;;17.90;4.32;;;;;;;;;;5348461;26;25068;-68
2024/04/16 08:06:40;;;;;;;18.55;4.07;;;;;;;;;;5333603;26;25030;-66
2024/04/16 08:09:06;;;;;;;24.98;4.00;;;;;;;;;;5346559;26;25038;-68
2024/04/16 08:11:32;;;;;;;18.27;4.45;;;;;;;;;;5344991;26;25062;-68
2024/04/16 08:13:58;;;;;;;14.35;4.22;;;;;;;;;;5339930;26;25078;-69
2024/04/16 08:16:25;;;;;;;16.10;3.78;;;;;;;;;;5336239;26;25039;-65
2024/04/16 08:18:51;;;;;;;20.25;3.88;;;;;;;;;;5345824;26;25044;-69
2024/04/16 08:21:17;;;;;;;17.15;4.45;;;;;;;;;;5334693;26;25055;-65
2024/04/16 08:23:43;;;;;;;31.48;5.03;;;;;;;;;;5344210;26;25037;-65
2024/04/16 08:26:09;;;;;;;29.67;6.53;;;;;;;;;;5341073;26;25045;-66
2024/04/16 08:28:36;;;;;;;21.33;5.50;;;;;;;;;;5340798;26;25039;-67
2024/04/16 08:31:02;;;;;;;18.13;4.32;;;;;;;;;;5343170;26;25053;-68
2024/04/16 08:33:28;;;;;;;24.20;5.25;;;;;;;;;;5337150;26;25039;-68
2024/04/16 08:35:57;;;;;;;21.50;4.47;;;;;;;;;;5351179;26;25058;-66
2024/04/16 08:38:23;;;;;;;24.10;4.75;;;;;;;;;;5332941;26;25062;-66
2024/04/16 08:40:49;;;;;;;22.40;4.90;;;;;;;;;;5376272;26;25087;-67
2024/04/16 08:43:15;;;;;;;23.45;5.10;;;;;;;;;;5337252;26;25117;-65
2024/04/16 08:45:45;;;;;;;17.25;4.47;;;;;;;;;;5343928;26;25057;-67
2024/04/16 08:48:11;;;;;;;21.92;5.43;;;;;;;;;;5340600;26;25112;-65
2024/04/16 08:50:37;;;;;;;17.33;4.50;;;;;;;;;;5355115;26;25044;-66
2024/04/16 08:53:04;;;;;;;24.02;5.80;;;;;;;;;;5353236;26;25054;-67
2024/04/16 08:55:30;;;;;;;17.98;4.85;;;;;;;;;;5357856;26;25035;-67
2024/04/16 08:57:57;;;;;;;21.33;5.63;;;;;;;;;;5355271;26;25055;-65
2024/04/16 09:00:23;;;;;;;27.58;6.28;;;;;;;;;;5359309;26;25068;-66
2024/04/16 09:02:52;;;;;;;30.05;6.05;;;;;;;;;;5355749;26;25044;-64
2024/04/16 09:05:19;;;;;;;24.33;5.60;;;;;;;;;;5310259;26;25036;-68
2024/04/16 09:07:48;;;;;;;26.30;6.25;;;;;;;;;;5348947;26;25090;-67
2024/04/16 09:10:24;;;;;;;16.92;4.90;;;;;;;;;;5347669;26;25126;-66
2024/04/16 09:12:50;;;;;;;21.05;4.60;;;;;;;;;;5367060;26;25062;-66
2024/04/16 09:15:17;;;;;;;18.05;4.70;;;;;;;;;;5346336;26;25150;-64
2024/04/16 09:17:46;;;;;;;27.17;5.38;;;;;;;;;;5354562;26;25060;-66
2024/04/16 09:20:25;;;;;;;25.73;4.45;;;;;;;;;;5347099;26;25076;-69
2024/04/16 09:22:52;;;;;;;25.80;6.15;;;;;;;;;;5340523;26;25044;-70
2024/04/16 09:25:19;;;;;;;32.92;5.95;;;;;;;;;;5345411;26;25038;-67
2024/04/16 09:27:48;;;;;;;26.83;5.00;;;;;;;;;;5348081;26;25066;-65
2024/04/16 09:30:14;;;;;;;21.70;5.70;;;;;;;;;;5350133;26;25058;-66
2024/04/16 09:32:42;;;;;;;22.35;5.07;;;;;;;;;;5335797;26;25104;-67
2024/04/16 09:35:08;;;;;;;25.77;4.80;;;;;;;;;;5353993;26;25043;-65
2024/04/16 09:37:34;;;;;;;18.77;4.70;;;;;;;;;;5381681;26;25052;-72
2024/04/16 09:40:00;;;;;;;28.35;6.60;;;;;;;;;;5376977;26;25039;-67
2024/04/16 09:42:27;;;;;;;25.15;5.45;;;;;;;;;;5337180;26;25051;-68
2024/04/16 09:44:53;;;;;;;19.75;5.05;;;;;;;;;;5315995;26;25057;-66
2024/04/16 09:47:19;;;;;;;13.85;4.53;;;;;;;;;;5348283;26;25044;-66
2024/04/16 09:49:50;;;;;;;15.80;6.13;;;;;;;;;;5344111;26;25073;-68
2024/04/16 09:52:18;;;;;;;19.00;5.68;;;;;;;;;;5344010;26;25063;-69
2024/04/16 09:54:44;;;;;;;18.50;5.00;;;;;;;;;;5304663;26;25050;-65
2024/04/16 09:57:11;;;;;;;26.00;6.13;;;;;;;;;;5335618;26;25045;-65
2024/04/16 09:59:43;;;;;;;21.23;5.70;;;;;;;;;;5334704;26;25052;-67
2024/04/16 10:02:10;;;;;;;29.50;6.10;;;;;;;;;;5336085;26;25048;-65
2024/04/16 10:04:36;;;;;;;28.02;7.22;;;;;;;;;;5358898;26;25043;-67
2024/04/16 10:07:03;;;;;;;19.02;5.65;;;;;;;;;;5350878;26;25060;-66
2024/04/16 10:09:29;;;;;;;21.20;5.72;;;;;;;;;;5296197;26;25055;-65
2024/04/16 10:11:56;;;;;;;19.17;5.35;;;;;;;;;;5356848;26;25063;-66
2024/04/16 10:14:22;;;;;;;20.05;6.03;;;;;;;;;;5371916;26;25051;-68
2024/04/16 10:16:48;;;;;;;17.77;5.72;;;;;;;;;;5386351;26;25056;-68
2024/04/16 10:19:15;;;;;;;26.95;5.78;;;;;;;;;;5358971;21;25127;-63
2024/04/16 10:21:42;;;;;;;15.18;5.55;;;;;;;;;;5367148;26;25038;-62
2024/04/16 10:24:09;;;;;;;20.65;5.95;;;;;;;;;;5370490;26;25067;-63
2024/04/16 10:26:37;;;;;;;31.05;6.80;;;;;;;;;;5370976;26;25107;-65
2024/04/16 10:29:03;;;;;;;18.33;5.80;;;;;;;;;;5353904;26;25073;-63
2024/04/16 10:31:30;;;;;;;28.67;6.75;;;;;;;;;;5295611;26;25051;-64
2024/04/16 10:34:00;;;;;;;31.90;7.10;;;;;;;;;;5336370;26;25076;-67
2024/04/16 10:36:27;;;;;;;35.28;7.88;;;;;;;;;;5308519;26;25043;-64
2024/04/16 10:38:53;;;;;;;23.13;6.35;;;;;;;;;;5348066;26;25101;-64
2024/04/16 10:41:28;;;;;;;10.75;5.57;;;;;;;;;;5338648;26;25084;-64
2024/04/16 10:43:56;;;;;;;11.27;4.72;;;;;;;;;;5336274;26;25043;-64
2024/04/16 10:46:23;;;;;;;11.50;4.90;;;;;;;;;;5325121;26;25044;-64
2024/04/16 10:48:49;;;;;;;12.57;3.50;;;;;;;;;;5340525;26;25059;-64
2024/04/16 10:51:15;;;;;;;11.52;3.45;;;;;;;;;;5339644;26;25053;-65
2024/04/16 10:53:41;;;;;;;5.47;3.22;;;;;;;;;;5337323;26;25063;-65
2024/04/16 10:56:11;;;;;;;8.15;3.08;;;;;;;;;;5330825;26;25051;-63
2024/04/16 10:58:37;;;;;;;16.25;4.10;;;;;;;;;;5303124;26;25068;-64
2024/04/16 11:01:04;;;;;;;8.63;2.97;;;;;;;;;;5303891;26;25056;-65
2024/04/16 11:03:34;;;;;;;5.10;3.40;;;;;;;;;;5328233;26;25091;-69
2024/04/16 11:06:00;;;;;;;11.02;4.05;;;;;;;;;;5328281;26;25049;-65
2024/04/16 11:08:26;;;;;;;6.35;3.53;;;;;;;;;;5302270;26;25040;-65
2024/04/16 11:10:52;;;;;;;7.65;3.42;;;;;;;;;;5303939;26;25157;-69
2024/04/16 11:13:18;;;;;;;7.07;2.95;;;;;;;;;;5305194;26;25058;-67
2024/04/16 11:15:45;;;;;;;7.65;3.10;;;;;;;;;;5302167;26;25061;-65
2024/04/16 11:18:11;;;;;;;10.27;4.50;;;;;;;;;;5334375;26;25065;-64
2024/04/16 11:20:37;;;;;;;8.98;5.20;;;;;;;;;;5358977;21;25053;-69
2024/04/16 11:23:04;;;;;;;7.95;4.47;;;;;;;;;;5359697;26;25046;-67
2024/04/16 11:25:34;;;;;;;13.70;4.80;;;;;;;;;;5372088;26;25031;-66
2024/04/16 11:28:00;;;;;;;15.63;5.10;;;;;;;;;;5367423;26;25065;-66
2024/04/16 11:30:27;;;;;;;21.38;6.78;;;;;;;;;;5356068;26;25125;-67
2024/04/16 11:32:53;;;;;;;17.73;4.68;;;;;;;;;;5366845;26;25048;-65
2024/04/16 11:35:21;;;;;;;13.30;5.65;;;;;;;;;;5368804;26;25108;-67
2024/04/16 11:37:47;;;;;;;20.80;6.32;;;;;;;;;;5355828;26;24979;-68
2024/04/16 11:40:13;;;;;;;22.10;6.93;;;;;;;;;;5365209;26;25063;-68
2024/04/16 11:42:40;;;;;;;19.08;6.35;;;;;;;;;;5367194;26;25088;-66
2024/04/16 11:45:07;;;;;;;27.55;7.22;;;;;;;;;;5368804;26;25039;-67
2024/04/16 11:47:33;;;;;;;20.08;7.60;;;;;;;;;;5368286;26;25138;-66
2024/04/16 11:50:00;;;;;;;25.88;8.02;;;;;;;;;;5350629;26;25058;-67
2024/04/16 11:52:27;;;;;;;21.27;6.68;;;;;;;;;;5359971;26;25151;-67
2024/04/16 11:54:53;;;;;;;24.70;7.43;;;;;;;;;;5336202;26;25111;-67
2024/04/16 11:57:19;;;;;;;23.80;8.10;;;;;;;;;;5369214;26;25054;-68
2024/04/16 11:59:47;;;;;;;18.90;6.95;;;;;;;;;;5338711;26;25054;-66
2024/04/16 12:02:13;;;;;;;26.98;8.02;;;;;;;;;;5336752;26;25052;-65
2024/04/16 12:04:40;;;;;;;23.33;7.75;;;;;;;;;;5360609;26;25136;-66
2024/04/16 12:07:06;;;;;;;31.35;7.85;;;;;;;;;;5364134;26;25037;-65
2024/04/16 12:09:32;;;;;;;34.47;8.52;;;;;;;;;;5354328;26;25039;-64
2024/04/16 12:11:58;;;;;;;27.77;7.55;;;;;;;;;;5354629;26;25038;-65
2024/04/16 12:14:24;;;;;;;18.50;7.43;;;;;;;;;;5368176;26;25065;-67
2024/04/16 12:16:50;;;;;;;22.75;8.18;;;;;;;;;;5358298;26;25064;-66
2024/04/16 12:19:17;;;;;;;24.45;7.68;;;;;;;;;;5351909;26;25031;-70
2024/04/16 12:21:43;;;;;;;24.65;7.75;;;;;;;;;;5363226;26;25057;-66
2024/04/16 12:24:09;;;;;;;28.23;8.38;;;;;;;;;;5363401;26;25082;-68
2024/04/16 12:26:35;;;;;;;20.45;6.57;;;;;;;;;;5364419;26;25071;-71
2024/04/16 12:29:01;;;;;;;29.25;7.68;;;;;;;;;;5360623;26;25092;-69
2024/04/16 12:31:27;;;;;;;34.10;8.07;;;;;;;;;;5372840;26;25042;-70
2024/04/16 12:33:54;;;;;;;23.17;7.55;;;;;;;;;;5360943;26;25057;-66
2024/04/16 12:36:21;;;;;;;34.03;8.50;;;;;;;;;;5361151;26;25104;-67
2024/04/16 12:38:47;;;;;;;31.67;8.50;;;;;;;;;;5360548;26;25106;-68
2024/04/16 12:41:13;;;;;;;26.48;8.23;;;;;;;;;;5371994;26;25086;-68
2024/04/16 12:43:39;;;;;;;31.50;7.18;;;;;;;;;;5332764;26;25062;-68
2024/04/16 12:46:05;;;;;;;27.15;7.40;;;;;;;;;;5365733;26;25037;-68
2024/04/16 12:48:31;;;;;;;33.15;7.88;;;;;;;;;;5367581;26;25043;-69
2024/04/16 12:50:57;;;;;;;21.20;6.68;;;;;;;;;;5372395;26;25054;-68
2024/04/16 12:53:23;;;;;;;25.48;7.07;;;;;;;;;;5371740;26;25061;-66
2024/04/16 12:55:52;;;;;;;17.77;6.03;;;;;;;;;;5366194;26;25041;-67
2024/04/16 12:58:18;;;;;;;24.00;7.15;;;;;;;;;;5366929;26;25055;-67
2024/04/16 13:00:44;;;;;;;26.20;6.25;;;;;;;;;;5363484;26;25056;-65
2024/04/16 13:03:11;;;;;;;26.27;6.22;;;;;;;;;;5355754;26;25060;-69
2024/04/16 13:05:37;;;;;;;29.67;6.70;;;;;;;;;;5363658;26;25129;-65
2024/04/16 13:08:03;;;;;;;32.38;7.30;;;;;;;;;;5364468;26;25038;-66
2024/04/16 13:10:30;;;;;;;23.35;7.47;;;;;;;;;;5361703;26;25047;-65
2024/04/16 13:12:56;;;;;;;22.90;6.30;;;;;;;;;;5374554;26;25052;-66
2024/04/16 13:15:22;;;;;;;26.17;6.85;;;;;;;;;;5350399;26;25065;-67
2024/04/16 13:17:48;;;;;;;27.38;6.30;;;;;;;;;;5341846;26;25052;-65
2024/04/16 13:20:14;;;;;;;27.25;7.85;;;;;;;;;;5354910;26;25052;-67
2024/04/16 13:22:40;;;;;;;35.05;6.57;;;;;;;;;;5358762;26;25060;-65
2024/04/16 13:25:07;;;;;;;22.85;6.32;;;;;;;;;;5358380;26;25073;-66
2024/04/16 13:27:33;;;;;;;23.27;7.10;;;;;;;;;;5379978;26;25064;-67
2024/04/16 13:29:59;;;;;;;27.38;7.53;;;;;;;;;;5373442;26;25115;-66
2024/04/16 13:32:25;;;;;;;21.92;6.30;;;;;;;;;;5382417;26;25049;-66
2024/04/16 13:34:51;;;;;;;26.13;6.30;;;;;;;;;;5386114;26;25084;-66
2024/04/16 13:37:17;;;;;;;22.85;6.63;;;;;;;;;;5389025;26;25036;-66
2024/04/16 13:39:43;;;;;;;23.83;6.53;;;;;;;;;;5389872;26;25077;-72
2024/04/16 13:42:09;;;;;;;30.75;6.72;;;;;;;;;;5377271;26;25062;-64
2024/04/16 13:44:38;;;;;;;27.25;6.60;;;;;;;;;;5386098;26;25025;-66
2024/04/16 13:47:04;;;;;;;24.27;6.40;;;;;;;;;;5369258;26;25038;-67
2024/04/16 13:49:30;;;;;;;28.10;5.57;;;;;;;;;;5355991;26;25058;-65
2024/04/16 13:51:56;;;;;;;25.85;6.63;;;;;;;;;;5360285;26;25039;-67
2024/04/16 13:54:22;;;;;;;21.77;6.18;;;;;;;;;;5357078;26;25110;-64
2024/04/16 13:56:48;;;;;;;20.02;7.07;;;;;;;;;;5368836;26;25094;-64
2024/04/16 13:59:14;;;;;;;16.70;6.93;;;;;;;;;;5368629;26;25061;-64
2024/04/16 14:01:40;;;;;;;29.58;7.00;;;;;;;;;;5354841;26;25131;-64
2024/04/16 14:04:06;;;;;;;25.23;7.70;;;;;;;;;;5375012;26;25083;-64
2024/04/16 14:06:32;;;;;;;26.20;6.20;;;;;;;;;;5361304;26;25050;-64
2024/04/16 14:08:59;;;;;;;21.88;6.57;;;;;;;;;;5371814;26;25054;-66
2024/04/16 14:11:25;;;;;;;25.08;7.75;;;;;;;;;;5339695;26;25044;-64
2024/04/16 14:13:51;;;;;;;20.88;5.97;;;;;;;;;;5350572;26;25085;-65
2024/04/16 14:16:17;;;;;;;18.88;6.47;;;;;;;;;;5365166;26;25060;-66
2024/04/16 14:18:50;;;;;;;17.67;6.65;;;;;;;;;;5330734;26;25060;-68
2024/04/16 14:21:16;;;;;;;19.75;6.30;;;;;;;;;;5354697;26;25039;-64
2024/04/16 14:23:42;;;;;;;19.90;6.53;;;;;;;;;;5340628;26;25059;-64
2024/04/16 14:26:08;;;;;;;15.68;5.85;;;;;;;;;;5370198;26;25052;-61
2024/04/16 14:28:35;;;;;;;20.58;6.55;;;;;;;;;;5359314;26;25070;-65